If you wish to contribute or participate in the discussions about articles you are invited to join SKYbrary as a registered user

 Actions

Örebro

From SKYbrary Wiki

ESOE
Airport
ICAO: ESOE
Summary
Name Örebro
Region Europe
Territory Sweden SE.gif
Location Örebro
Serving
Coordinates 59° 13' 37.13" N, 15° 2' 22.14" E
Runways
Designator Length Width Surface ROPS
1/19 2601 m8,533.465 ft <br /> 45 m147.638 ft <br /> ASP yes/yes


METAR
Observation ESOE 210220Z AUTO 19002KT 9999 SCT130/// 02/M01 Q1007
Station Orebro Private
Date/Time 21 April 2021 02:20:00
Wind direction 190°
Wind speed 02 kts
Lowest cloud amount scattered clouds
Temperature 2°C
Dew point
Humidity 80%
QNH 1007 hPa
Weather condition n/a


Örebro Airport

ICAO: ESOE IATA: ORB

Description

Örebro Airport is located 10 km5.4 nm <br />10,000 m <br />32,808.399 ft <br /> southwest of Örebro, Sweden.

Climatology

Temperate Marine climate/Oceanic climate (Köppen climate classification Cfb). Moderately cool summer and comparatively warm winter.

Maps

Terrain

Loading map...

Airport Layout

Loading map...


Accidents & Serious Incidents at or in vicinity of ESOE

None on SKYbrary